الجوف, Saudi Arabia

11:58 PM AST on êواêر 23, 2017 (GMT +0300)
Al Jouf | | Change Station

Elev 2244 ft 29.78 °N, 40.10 °E | Updated 58 minutes ago

صافية
صافية
46 °F
Feels Like 42 °F
N
10
ريح متغير ريح from شرق

هذا اليوم
High -- | Low -- °F
--% Chance of Precip.
Yesterday
High -- | Low -- °F
Precip. -- في
الضغط 30.21 في
وضوح الرؤية -9999.0 أميال
سحابات
رياح باردة 42 °F
نقطة الندى 21 °F
الرطوبة 37%
Rainfall 0.00 في
عمق الثلج Not available.
7:13 AM 5:49 PM
الهلال الأخير, 16% visible
METAR OESK 232000Z 09009KT CAVOK 08/M06 Q1023 NOSIG
الضغط 30.21 في
وضوح الرؤية -9999.0 أميال
سحابات
رياح باردة 42 °F
نقطة الندى 21 °F
الرطوبة 37%
Rainfall 0.00 في
عمق الثلج Not available.
7:13 AM 5:49 PM
الهلال الأخير, 16% visible
METAR OESK 232000Z 09009KT CAVOK 08/M06 Q1023 NOSIG

Get Your Daily Forecast Email!

Thanks for signing up!

Be on the lookout for a verification email in your inbox.

You'll start receiving the daily forecast at 8 AM.

×

10-Day Weather Forecast

No radar image for this location.
×

Almanac

علم الفلك

Jan. 23, 2017 Rise Set
Actual Time
Civil Twilight
Nautical Twilight
Astronomical Twilight
قمر
Length Of Visible Light
طول الیوم
Tomorrow will be .
, % of the Moon is Illuminated

Today's Extremes

Country Highs Country Lows

Community

WunderPhotos

Upload Photos

1,962,540 photos uploaded!

WunderBlog® & News

Nearby

جودة الهواء

  جودة الهواء AQ Index Pollutant
Not available.

عمق الثلج

Station Depth Elevation

Earthquake Activity

City Distance Mag. Time & Date
Minimum magnitude displayed is 2.5.

Coastal Water Temperatures

مكان درجات الحرارة

Stations

Nearby Weather Stations

Station Location الحرارة رياح باردة نقطة الندى الرطوبة ريح Precip. Elev تحديث Type